sensor_id;sensor_type;location;lat;lon;timestamp;pressure;altitude;pressure_sealevel;temperature;humidity
82379;BME280;72008;48.140;11.614;2023-10-31T00:00:16;94006.09;;;11.27;81.89
82379;BME280;72008;48.140;11.614;2023-10-31T00:01:17;94006.84;;;11.24;80.53
82379;BME280;72008;48.140;11.614;2023-10-31T00:02:17;94007.97;;;11.12;80.09
82379;BME280;72008;48.140;11.614;2023-10-31T00:03:18;94004.44;;;11.15;80.70
82379;BME280;72008;48.140;11.614;2023-10-31T00:04:18;94024.78;;;11.14;80.60
82379;BME280;72008;48.140;11.614;2023-10-31T00:05:19;94022.03;;;11.07;81.20
82379;BME280;72008;48.140;11.614;2023-10-31T00:06:19;94012.59;;;11.01;80.89
82379;BME280;72008;48.140;11.614;2023-10-31T00:07:19;94014.94;;;10.99;81.04
82379;BME280;72008;48.140;11.614;2023-10-31T00:08:20;94019.22;;;11.00;80.88
82379;BME280;72008;48.140;11.614;2023-10-31T00:09:20;94010.56;;;10.87;80.33
82379;BME280;72008;48.140;11.614;2023-10-31T00:10:21;94022.25;;;10.84;81.08
82379;BME280;72008;48.140;11.614;2023-10-31T00:11:21;94020.66;;;10.79;80.14
82379;BME280;72008;48.140;11.614;2023-10-31T00:12:21;94017.91;;;10.79;80.80
82379;BME280;72008;48.140;11.614;2023-10-31T00:13:22;94025.31;;;10.75;79.54
82379;BME280;72008;48.140;11.614;2023-10-31T00:14:22;94022.16;;;10.73;80.21
82379;BME280;72008;48.140;11.614;2023-10-31T00:15:23;94024.97;;;10.77;79.77
82379;BME280;72008;48.140;11.614;2023-10-31T00:16:23;94009.69;;;10.76;79.96
82379;BME280;72008;48.140;11.614;2023-10-31T00:17:23;94017.16;;;10.82;80.98
82379;BME280;72008;48.140;11.614;2023-10-31T00:18:24;94011.75;;;10.89;79.36
82379;BME280;72008;48.140;11.614;2023-10-31T00:19:24;94015.22;;;10.83;80.18
82379;BME280;72008;48.140;11.614;2023-10-31T00:20:25;94026.94;;;10.83;80.40
82379;BME280;72008;48.140;11.614;2023-10-31T00:21:25;94023.44;;;10.83;79.38
82379;BME280;72008;48.140;11.614;2023-10-31T00:22:25;94027.28;;;10.78;80.45
82379;BME280;72008;48.140;11.614;2023-10-31T00:23:26;94018.75;;;10.83;79.53
82379;BME280;72008;48.140;11.614;2023-10-31T00:24:26;94022.25;;;10.80;79.34
82379;BME280;72008;48.140;11.614;2023-10-31T00:25:27;94012.06;;;10.77;80.07
82379;BME280;72008;48.140;11.614;2023-10-31T00:26:27;94018.72;;;10.80;80.14
82379;BME280;72008;48.140;11.614;2023-10-31T00:27:27;94023.78;;;10.78;79.59
82379;BME280;72008;48.140;11.614;2023-10-31T00:28:28;94017.13;;;10.75;79.17
82379;BME280;72008;48.140;11.614;2023-10-31T00:29:28;94024.97;;;10.77;78.48
82379;BME280;72008;48.140;11.614;2023-10-31T00:30:28;94040.94;;;10.71;79.11
82379;BME280;72008;48.140;11.614;2023-10-31T00:31:29;94023.31;;;10.65;79.75
82379;BME280;72008;48.140;11.614;2023-10-31T00:32:29;94022.56;;;10.72;79.91
82379;BME280;72008;48.140;11.614;2023-10-31T00:33:30;94028.84;;;10.76;78.76
82379;BME280;72008;48.140;11.614;2023-10-31T00:34:30;94020.25;;;10.77;79.65
82379;BME280;72008;48.140;11.614;2023-10-31T00:35:30;94028.50;;;10.84;79.27
82379;BME280;72008;48.140;11.614;2023-10-31T00:36:31;94025.69;;;10.74;79.03
82379;BME280;72008;48.140;11.614;2023-10-31T00:37:31;94021.72;;;10.67;79.85
82379;BME280;72008;48.140;11.614;2023-10-31T00:38:32;94023.34;;;10.72;79.24
82379;BME280;72008;48.140;11.614;2023-10-31T00:39:32;94027.25;;;10.71;78.75
82379;BME280;72008;48.140;11.614;2023-10-31T00:40:32;94013.97;;;10.73;78.64
82379;BME280;72008;48.140;11.614;2023-10-31T00:41:33;94024.19;;;10.80;79.49
82379;BME280;72008;48.140;11.614;2023-10-31T00:42:33;94027.34;;;10.85;79.52
82379;BME280;72008;48.140;11.614;2023-10-31T00:43:33;94022.25;;;10.80;77.52
82379;BME280;72008;48.140;11.614;2023-10-31T00:44:34;94017.47;;;10.70;79.01
82379;BME280;72008;48.140;11.614;2023-10-31T00:45:34;94015.91;;;10.73;78.71
82379;BME280;72008;48.140;11.614;2023-10-31T00:46:35;94025.66;;;10.70;79.29
82379;BME280;72008;48.140;11.614;2023-10-31T00:47:35;94025.66;;;10.70;78.28
82379;BME280;72008;48.140;11.614;2023-10-31T00:48:35;94018.53;;;10.58;78.00
82379;BME280;72008;48.140;11.614;2023-10-31T00:49:36;94014.28;;;10.64;78.93
82379;BME280;72008;48.140;11.614;2023-10-31T00:50:36;94015.91;;;10.69;78.66
82379;BME280;72008;48.140;11.614;2023-10-31T00:51:37;94010.38;;;10.62;79.72
82379;BME280;72008;48.140;11.614;2023-10-31T00:52:37;94015.50;;;10.70;80.11
82379;BME280;72008;48.140;11.614;2023-10-31T00:53:37;94010.78;;;10.64;79.63
82379;BME280;72008;48.140;11.614;2023-10-31T00:54:38;94011.97;;;10.66;78.44
82379;BME280;72008;48.140;11.614;2023-10-31T00:55:38;94004.84;;;10.55;78.90
82379;BME280;72008;48.140;11.614;2023-10-31T00:56:39;94016.19;;;10.57;79.18
82379;BME280;72008;48.140;11.614;2023-10-31T00:57:39;94013.47;;;10.60;79.10
82379;BME280;72008;48.140;11.614;2023-10-31T00:58:39;94012.28;;;10.58;79.18
82379;BME280;72008;48.140;11.614;2023-10-31T00:59:40;94022.88;;;10.59;79.64
82379;BME280;72008;48.140;11.614;2023-10-31T01:00:40;94021.28;;;10.58;79.75
82379;BME280;72008;48.140;11.614;2023-10-31T01:01:42;94026.72;;;10.55;78.92
82379;BME280;72008;48.140;11.614;2023-10-31T01:02:43;94030.97;;;10.48;79.26
82379;BME280;72008;48.140;11.614;2023-10-31T01:03:43;94025.09;;;10.46;78.90
82379;BME280;72008;48.140;11.614;2023-10-31T01:04:44;94018.84;;;10.50;80.47
82379;BME280;72008;48.140;11.614;2023-10-31T01:05:44;94018.09;;;10.53;79.63
82379;BME280;72008;48.140;11.614;2023-10-31T01:06:45;94011.88;;;10.56;78.95
82379;BME280;72008;48.140;11.614;2023-10-31T01:07:45;94016.50;;;10.44;78.81
82379;BME280;72008;48.140;11.614;2023-10-31T01:08:46;94016.44;;;10.41;79.62
82379;BME280;72008;48.140;11.614;2023-10-31T01:09:46;94008.97;;;10.38;79.86
82379;BME280;72008;48.140;11.614;2023-10-31T01:10:46;94016.09;;;10.46;79.14
82379;BME280;72008;48.140;11.614;2023-10-31T01:11:47;94021.53;;;10.42;79.31
82379;BME280;72008;48.140;11.614;2023-10-31T01:12:48;94019.91;;;10.34;78.73
82379;BME280;72008;48.140;11.614;2023-10-31T01:13:48;94021.50;;;10.35;79.83
82379;BME280;72008;48.140;11.614;2023-10-31T01:14:48;94019.56;;;10.39;79.64
82379;BME280;72008;48.140;11.614;2023-10-31T01:15:49;94022.28;;;10.36;79.72
82379;BME280;72008;48.140;11.614;2023-10-31T01:16:49;94018.06;;;10.45;79.52
82379;BME280;72008;48.140;11.614;2023-10-31T01:17:49;94021.66;;;10.53;79.99
82379;BME280;72008;48.140;11.614;2023-10-31T01:18:50;94018.16;;;10.56;79.68
82379;BME280;72008;48.140;11.614;2023-10-31T01:19:50;94017.75;;;10.58;79.33
82379;BME280;72008;48.140;11.614;2023-10-31T01:20:51;94024.44;;;10.60;79.56
82379;BME280;72008;48.140;11.614;2023-10-31T01:21:51;94026.00;;;10.61;78.42
82379;BME280;72008;48.140;11.614;2023-10-31T01:22:52;94028.34;;;10.59;79.11
82379;BME280;72008;48.140;11.614;2023-10-31T01:23:52;94031.44;;;10.58;79.87
82379;BME280;72008;48.140;11.614;2023-10-31T01:24:52;94033.41;;;10.61;78.77
82379;BME280;72008;48.140;11.614;2023-10-31T01:25:53;94029.91;;;10.64;79.40
82379;BME280;72008;48.140;11.614;2023-10-31T01:26:53;94024.09;;;10.65;79.80
82379;BME280;72008;48.140;11.614;2023-10-31T01:27:53;94025.66;;;10.66;79.14
82379;BME280;72008;48.140;11.614;2023-10-31T01:28:54;94024.44;;;10.64;79.43
82379;BME280;72008;48.140;11.614;2023-10-31T01:29:54;94029.88;;;10.57;78.87
82379;BME280;72008;48.140;11.614;2023-10-31T01:30:55;94023.63;;;10.56;78.94
82379;BME280;72008;48.140;11.614;2023-10-31T01:31:55;94026.78;;;10.62;78.42
82379;BME280;72008;48.140;11.614;2023-10-31T01:32:56;94029.94;;;10.67;79.29
82379;BME280;72008;48.140;11.614;2023-10-31T01:33:56;94026.03;;;10.65;78.62
82379;BME280;72008;48.140;11.614;2023-10-31T01:34:57;94029.56;;;10.69;79.21
82379;BME280;72008;48.140;11.614;2023-10-31T01:35:57;94032.72;;;10.71;78.65
82379;BME280;72008;48.140;11.614;2023-10-31T01:36:57;94043.25;;;10.65;78.97
82379;BME280;72008;48.140;11.614;2023-10-31T01:37:58;94038.41;;;10.52;78.59
82379;BME280;72008;48.140;11.614;2023-10-31T01:38:58;94037.63;;;10.47;79.34
82379;BME280;72008;48.140;11.614;2023-10-31T01:39:59;94036.41;;;10.41;79.44
82379;BME280;72008;48.140;11.614;2023-10-31T01:40:59;94034.50;;;10.49;79.84
82379;BME280;72008;48.140;11.614;2023-10-31T01:42:00;94035.34;;;10.57;80.30
82379;BME280;72008;48.140;11.614;2023-10-31T01:43:00;94040.84;;;10.60;80.03
82379;BME280;72008;48.140;11.614;2023-10-31T01:44:00;94050.63;;;10.61;80.32
82379;BME280;72008;48.140;11.614;2023-10-31T01:45:01;94043.59;;;10.64;80.25
82379;BME280;72008;48.140;11.614;2023-10-31T01:46:01;94038.13;;;10.64;79.40
82379;BME280;72008;48.140;11.614;2023-10-31T01:47:02;94046.34;;;10.64;80.06
82379;BME280;72008;48.140;11.614;2023-10-31T01:48:03;94045.19;;;10.65;80.20
82379;BME280;72008;48.140;11.614;2023-10-31T01:49:03;94045.22;;;10.68;79.91
82379;BME280;72008;48.140;11.614;2023-10-31T01:50:06;94040.88;;;10.64;80.10
82379;BME280;72008;48.140;11.614;2023-10-31T01:51:07;94042.47;;;10.65;79.61
82379;BME280;72008;48.140;11.614;2023-10-31T01:52:09;94042.47;;;10.65;78.86
82379;BME280;72008;48.140;11.614;2023-10-31T01:53:09;94042.03;;;10.59;79.06
82379;BME280;72008;48.140;11.614;2023-10-31T01:54:10;94040.44;;;10.58;79.62
82379;BME280;72008;48.140;11.614;2023-10-31T01:55:13;94040.47;;;10.62;80.27
82379;BME280;72008;48.140;11.614;2023-10-31T01:56:14;94046.34;;;10.64;79.16
82379;BME280;72008;48.140;11.614;2023-10-31T01:57:15;94039.66;;;10.58;79.16
82379;BME280;72008;48.140;11.614;2023-10-31T01:58:16;94047.84;;;10.58;79.46
82379;BME280;72008;48.140;11.614;2023-10-31T01:59:16;94045.06;;;10.51;78.23
82379;BME280;72008;48.140;11.614;2023-10-31T02:00:17;94043.88;;;10.48;78.09
82379;BME280;72008;48.140;11.614;2023-10-31T02:01:18;94034.94;;;10.55;78.27
82379;BME280;72008;48.140;11.614;2023-10-31T02:02:22;94038.09;;;10.60;79.08
82379;BME280;72008;48.140;11.614;2023-10-31T02:03:23;94035.63;;;10.44;79.41
82379;BME280;72008;48.140;11.614;2023-10-31T02:04:24;94034.81;;;10.44;79.26
82379;BME280;72008;48.140;11.614;2023-10-31T02:05:24;94037.53;;;10.40;78.38
82379;BME280;72008;48.140;11.614;2023-10-31T02:06:25;94046.09;;;10.35;78.61
82379;BME280;72008;48.140;11.614;2023-10-31T02:07:25;94044.09;;;10.32;78.72
82379;BME280;72008;48.140;11.614;2023-10-31T02:08:26;94044.91;;;10.33;79.13
82379;BME280;72008;48.140;11.614;2023-10-31T02:09:26;94040.63;;;10.35;79.17
82379;BME280;72008;48.140;11.614;2023-10-31T02:10:26;94057.84;;;10.39;79.02
82379;BME280;72008;48.140;11.614;2023-10-31T02:11:27;94036.00;;;10.43;79.58
82379;BME280;72008;48.140;11.614;2023-10-31T02:12:32;94053.94;;;10.40;78.66
82379;BME280;72008;48.140;11.614;2023-10-31T02:13:32;94053.59;;;10.42;79.00
82379;BME280;72008;48.140;11.614;2023-10-31T02:14:33;94059.81;;;10.39;78.41
82379;BME280;72008;48.140;11.614;2023-10-31T02:15:33;94055.84;;;10.33;79.52
82379;BME280;72008;48.140;11.614;2023-10-31T02:16:33;94060.94;;;10.38;79.00
82379;BME280;72008;48.140;11.614;2023-10-31T02:17:34;94067.13;;;10.28;79.38
82379;BME280;72008;48.140;11.614;2023-10-31T02:18:34;94062.44;;;10.28;79.96
82379;BME280;72008;48.140;11.614;2023-10-31T02:19:35;94069.84;;;10.28;79.60
82379;BME280;72008;48.140;11.614;2023-10-31T02:20:35;94061.66;;;10.28;79.67
82379;BME280;72008;48.140;11.614;2023-10-31T02:21:39;94071.06;;;10.30;78.43
82379;BME280;72008;48.140;11.614;2023-10-31T02:22:40;94070.13;;;10.19;78.74
82379;BME280;72008;48.140;11.614;2023-10-31T02:23:40;94073.28;;;10.21;79.72
82379;BME280;72008;48.140;11.614;2023-10-31T02:24:40;94071.69;;;10.20;79.99
82379;BME280;72008;48.140;11.614;2023-10-31T02:25:41;94075.63;;;10.22;79.96
82379;BME280;72008;48.140;11.614;2023-10-31T02:26:41;94072.59;;;10.28;80.23
82379;BME280;72008;48.140;11.614;2023-10-31T02:27:42;94081.22;;;10.30;78.59
82379;BME280;72008;48.140;11.614;2023-10-31T02:28:42;94084.25;;;10.24;79.06
82379;BME280;72008;48.140;11.614;2023-10-31T02:29:43;94078.75;;;10.21;79.92
82379;BME280;72008;48.140;11.614;2023-10-31T02:30:43;94087.47;;;10.30;79.06
82379;BME280;72008;48.140;11.614;2023-10-31T02:31:43;94075.91;;;10.14;79.31
82379;BME280;72008;48.140;11.614;2023-10-31T02:32:44;94089.53;;;10.07;79.52
82379;BME280;72008;48.140;11.614;2023-10-31T02:33:45;94079.41;;;10.11;79.44
82379;BME280;72008;48.140;11.614;2023-10-31T02:34:45;94084.16;;;10.17;80.15
82379;BME280;72008;48.140;11.614;2023-10-31T02:35:45;94090.47;;;10.21;78.91
82379;BME280;72008;48.140;11.614;2023-10-31T02:36:46;94089.63;;;10.17;79.36
82379;BME280;72008;48.140;11.614;2023-10-31T02:37:47;94084.84;;;10.07;78.61
82379;BME280;72008;48.140;11.614;2023-10-31T02:38:48;94098.50;;;10.07;79.27
82379;BME280;72008;48.140;11.614;2023-10-31T02:39:48;94080.91;;;10.05;79.58
82379;BME280;72008;48.140;11.614;2023-10-31T02:40:48;94082.06;;;10.03;78.46
82379;BME280;72008;48.140;11.614;2023-10-31T02:41:49;94079.00;;;10.09;79.91
82379;BME280;72008;48.140;11.614;2023-10-31T02:42:49;94072.66;;;10.01;79.30
82379;BME280;72008;48.140;11.614;2023-10-31T02:43:50;94080.09;;;10.00;79.88
82379;BME280;72008;48.140;11.614;2023-10-31T02:44:51;94074.69;;;10.08;79.85
82379;BME280;72008;48.140;11.614;2023-10-31T02:45:51;94073.53;;;10.09;78.59
82379;BME280;72008;48.140;11.614;2023-10-31T02:46:51;94080.16;;;10.08;78.96
82379;BME280;72008;48.140;11.614;2023-10-31T02:47:52;94090.34;;;10.11;78.95
82379;BME280;72008;48.140;11.614;2023-10-31T02:48:52;94083.38;;;10.17;79.87
82379;BME280;72008;48.140;11.614;2023-10-31T02:49:53;94086.53;;;10.19;79.15
82379;BME280;72008;48.140;11.614;2023-10-31T02:50:53;94094.38;;;10.20;78.89
82379;BME280;72008;48.140;11.614;2023-10-31T02:51:53;94078.31;;;10.19;78.60
82379;BME280;72008;48.140;11.614;2023-10-31T02:52:54;94077.88;;;10.13;79.13
82379;BME280;72008;48.140;11.614;2023-10-31T02:53:54;94068.91;;;10.16;79.46
82379;BME280;72008;48.140;11.614;2023-10-31T02:54:54;94073.22;;;10.17;79.53
82379;BME280;72008;48.140;11.614;2023-10-31T02:55:55;94070.06;;;10.12;79.21
82379;BME280;72008;48.140;11.614;2023-10-31T02:56:55;94080.19;;;10.11;79.93
82379;BME280;72008;48.140;11.614;2023-10-31T02:57:56;94084.13;;;10.14;79.35
82379;BME280;72008;48.140;11.614;2023-10-31T02:58:56;94078.56;;;10.03;78.41
82379;BME280;72008;48.140;11.614;2023-10-31T02:59:56;94082.41;;;9.98;78.79
82379;BME280;72008;48.140;11.614;2023-10-31T03:00:57;94092.22;;;10.03;79.58
82379;BME280;72008;48.140;11.614;2023-10-31T03:01:57;94088.31;;;10.04;79.71
82379;BME280;72008;48.140;11.614;2023-10-31T03:02:58;94084.47;;;10.09;79.68
82379;BME280;72008;48.140;11.614;2023-10-31T03:03:58;94095.00;;;10.07;78.63
82379;BME280;72008;48.140;11.614;2023-10-31T03:04:59;94098.16;;;10.09;78.98
82379;BME280;72008;48.140;11.614;2023-10-31T03:05:59;94096.13;;;10.06;79.62
82379;BME280;72008;48.140;11.614;2023-10-31T03:06:59;94098.84;;;10.02;79.48
82379;BME280;72008;48.140;11.614;2023-10-31T03:08:00;94098.50;;;10.07;79.21
82379;BME280;72008;48.140;11.614;2023-10-31T03:09:00;94101.25;;;10.07;79.21
82379;BME280;72008;48.140;11.614;2023-10-31T03:10:02;94102.81;;;10.08;79.69
82379;BME280;72008;48.140;11.614;2023-10-31T03:11:02;94107.38;;;9.97;78.92
82379;BME280;72008;48.140;11.614;2023-10-31T03:12:03;94112.09;;;10.00;79.26
82379;BME280;72008;48.140;11.614;2023-10-31T03:13:03;94110.56;;;10.02;79.82
82379;BME280;72008;48.140;11.614;2023-10-31T03:14:04;94113.28;;;10.02;79.66
82379;BME280;72008;48.140;11.614;2023-10-31T03:15:05;94120.66;;;9.98;79.22
82379;BME280;72008;48.140;11.614;2023-10-31T03:16:05;94132.78;;;9.97;78.98
82379;BME280;72008;48.140;11.614;2023-10-31T03:17:06;94137.47;;;9.97;79.04
82379;BME280;72008;48.140;11.614;2023-10-31T03:18:06;94135.50;;;9.97;79.82
82379;BME280;72008;48.140;11.614;2023-10-31T03:19:07;94134.72;;;9.97;79.30
82379;BME280;72008;48.140;11.614;2023-10-31T03:20:08;94125.22;;;9.87;79.29
82379;BME280;72008;48.140;11.614;2023-10-31T03:21:09;94130.63;;;9.84;78.92
82379;BME280;72008;48.140;11.614;2023-10-31T03:22:09;94127.53;;;9.85;79.44
82379;BME280;72008;48.140;11.614;2023-10-31T03:23:09;94110.81;;;9.90;79.54
82379;BME280;72008;48.140;11.614;2023-10-31T03:24:10;94117.47;;;9.93;80.30
82379;BME280;72008;48.140;11.614;2023-10-31T03:25:10;94119.06;;;9.94;79.13
82379;BME280;72008;48.140;11.614;2023-10-31T03:26:11;94106.97;;;9.95;79.24
82379;BME280;72008;48.140;11.614;2023-10-31T03:27:11;94112.09;;;10.00;79.76
82379;BME280;72008;48.140;11.614;2023-10-31T03:28:20;94110.91;;;9.97;79.17
82379;BME280;72008;48.140;11.614;2023-10-31T03:29:20;94110.50;;;9.99;78.86
82379;BME280;72008;48.140;11.614;2023-10-31T03:30:21;94107.78;;;9.99;78.69
82379;BME280;72008;48.140;11.614;2023-10-31T03:31:21;94107.00;;;9.98;78.69
82379;BME280;72008;48.140;11.614;2023-10-31T03:32:21;94095.28;;;9.98;78.28
82379;BME280;72008;48.140;11.614;2023-10-31T03:33:22;94102.75;;;10.01;79.31
82379;BME280;72008;48.140;11.614;2023-10-31T03:34:23;94092.91;;;9.96;78.70
82379;BME280;72008;48.140;11.614;2023-10-31T03:35:23;94092.91;;;9.96;78.74
82379;BME280;72008;48.140;11.614;2023-10-31T03:36:24;94098.47;;;10.03;78.60
82379;BME280;72008;48.140;11.614;2023-10-31T03:37:24;94095.78;;;10.07;78.81
82379;BME280;72008;48.140;11.614;2023-10-31T03:38:24;94092.63;;;10.05;79.01
82379;BME280;72008;48.140;11.614;2023-10-31T03:39:25;94098.84;;;10.02;79.49
82379;BME280;72008;48.140;11.614;2023-10-31T03:40:25;94088.28;;;10.00;78.89
82379;BME280;72008;48.140;11.614;2023-10-31T03:41:26;94096.06;;;9.98;79.27
82379;BME280;72008;48.140;11.614;2023-10-31T03:42:26;94092.50;;;9.94;78.30
82379;BME280;72008;48.140;11.614;2023-10-31T03:43:26;94094.53;;;10.01;78.79
82379;BME280;72008;48.140;11.614;2023-10-31T03:44:27;94098.88;;;10.06;79.18
82379;BME280;72008;48.140;11.614;2023-10-31T03:45:29;94099.25;;;10.04;78.27
82379;BME280;72008;48.140;11.614;2023-10-31T03:46:29;94101.56;;;10.02;78.52
82379;BME280;72008;48.140;11.614;2023-10-31T03:47:29;94092.50;;;9.94;78.49
82379;BME280;72008;48.140;11.614;2023-10-31T03:48:30;94091.16;;;9.81;77.79
82379;BME280;72008;48.140;11.614;2023-10-31T03:49:30;94097.81;;;9.80;78.87
82379;BME280;72008;48.140;11.614;2023-10-31T03:50:31;94095.50;;;9.82;79.77
82379;BME280;72008;48.140;11.614;2023-10-31T03:51:31;94097.09;;;9.87;78.64
82379;BME280;72008;48.140;11.614;2023-10-31T03:52:31;94105.34;;;9.90;78.52
82379;BME280;72008;48.140;11.614;2023-10-31T03:53:32;94114.41;;;9.98;78.81
82379;BME280;72008;48.140;11.614;2023-10-31T03:54:32;94112.88;;;10.00;79.03
82379;BME280;72008;48.140;11.614;2023-10-31T03:55:33;94119.84;;;9.94;78.66
82379;BME280;72008;48.140;11.614;2023-10-31T03:56:43;94124.81;;;9.85;79.00
82379;BME280;72008;48.140;11.614;2023-10-31T03:57:44;94125.56;;;9.82;78.69
82379;BME280;72008;48.140;11.614;2023-10-31T03:58:44;94128.28;;;9.82;78.41
82379;BME280;72008;48.140;11.614;2023-10-31T03:59:44;94135.28;;;9.79;78.27
82379;BME280;72008;48.140;11.614;2023-10-31T04:00:45;94127.13;;;9.83;78.67
82379;BME280;72008;48.140;11.614;2023-10-31T04:01:45;94139.63;;;9.84;78.48
82379;BME280;72008;48.140;11.614;2023-10-31T04:02:46;94131.38;;;9.80;78.61
82379;BME280;72008;48.140;11.614;2023-10-31T04:03:46;94135.31;;;9.83;78.71
82379;BME280;72008;48.140;11.614;2023-10-31T04:04:46;94131.84;;;9.86;78.97
82379;BME280;72008;48.140;11.614;2023-10-31T04:05:47;94132.19;;;9.85;78.03
82379;BME280;72008;48.140;11.614;2023-10-31T04:06:47;94130.63;;;9.84;78.12
82379;BME280;72008;48.140;11.614;2023-10-31T04:07:48;94130.63;;;9.84;77.95
82379;BME280;72008;48.140;11.614;2023-10-31T04:08:49;94126.00;;;9.88;78.00
82379;BME280;72008;48.140;11.614;2023-10-31T04:09:49;94119.84;;;9.94;78.11
82379;BME280;72008;48.140;11.614;2023-10-31T04:10:49;94124.56;;;9.97;77.15
82379;BME280;72008;48.140;11.614;2023-10-31T04:11:50;94122.59;;;9.94;77.67
82379;BME280;72008;48.140;11.614;2023-10-31T04:12:50;94128.31;;;9.86;77.54
82379;BME280;72008;48.140;11.614;2023-10-31T04:13:51;94130.34;;;9.92;77.46
82379;BME280;72008;48.140;11.614;2023-10-31T04:14:51;94122.63;;;9.98;77.18
82379;BME280;72008;48.140;11.614;2023-10-31T04:15:51;94117.97;;;10.02;77.99
82379;BME280;72008;48.140;11.614;2023-10-31T04:16:52;94117.50;;;9.96;78.22
82379;BME280;72008;48.140;11.614;2023-10-31T04:17:52;94136.28;;;9.98;76.99
82379;BME280;72008;48.140;11.614;2023-10-31T04:18:53;94133.13;;;9.96;76.48
82379;BME280;72008;48.140;11.614;2023-10-31T04:19:53;94143.34;;;10.02;76.98
82379;BME280;72008;48.140;11.614;2023-10-31T04:20:53;94147.53;;;9.93;76.48
82379;BME280;72008;48.140;11.614;2023-10-31T04:21:54;94149.13;;;9.94;76.54
82379;BME280;72008;48.140;11.614;2023-10-31T04:22:54;94165.88;;;9.92;76.88
82379;BME280;72008;48.140;11.614;2023-10-31T04:23:55;94158.03;;;9.91;76.38
82379;BME280;72008;48.140;11.614;2023-10-31T04:24:55;94166.72;;;9.96;76.76
82379;BME280;72008;48.140;11.614;2023-10-31T04:25:56;94160.75;;;9.87;76.91
82379;BME280;72008;48.140;11.614;2023-10-31T04:26:56;94162.34;;;9.88;76.29
82379;BME280;72008;48.140;11.614;2023-10-31T04:27:57;94168.28;;;9.94;76.01
82379;BME280;72008;48.140;11.614;2023-10-31T04:28:57;94163.50;;;9.91;75.22
82379;BME280;72008;48.140;11.614;2023-10-31T04:29:58;94159.63;;;9.92;75.72
82379;BME280;72008;48.140;11.614;2023-10-31T04:30:58;94168.97;;;9.91;75.52
82379;BME280;72008;48.140;11.614;2023-10-31T04:31:58;94168.31;;;9.97;75.37
82379;BME280;72008;48.140;11.614;2023-10-31T04:32:59;94157.38;;;9.97;75.48
82379;BME280;72008;48.140;11.614;2023-10-31T04:33:59;94160.88;;;9.98;75.28
82379;BME280;72008;48.140;11.614;2023-10-31T04:35:00;94151.91;;;9.97;75.20
82379;BME280;72008;48.140;11.614;2023-10-31T04:36:00;94157.25;;;9.90;74.51
82379;BME280;72008;48.140;11.614;2023-10-31T04:37:00;94156.13;;;9.91;74.52
82379;BME280;72008;48.140;11.614;2023-10-31T04:38:01;94157.34;;;9.94;74.95
82379;BME280;72008;48.140;11.614;2023-10-31T04:39:01;94164.72;;;9.93;75.40
82379;BME280;72008;48.140;11.614;2023-10-31T04:40:02;94157.72;;;9.96;75.85
82379;BME280;72008;48.140;11.614;2023-10-31T04:41:02;94157.75;;;9.99;74.90
82379;BME280;72008;48.140;11.614;2023-10-31T04:42:03;94167.97;;;10.02;74.63
82379;BME280;72008;48.140;11.614;2023-10-31T04:43:04;94164.78;;;9.97;75.55
82379;BME280;72008;48.140;11.614;2023-10-31T04:44:04;94166.63;;;9.89;75.45
82379;BME280;72008;48.140;11.614;2023-10-31T04:45:05;94157.94;;;9.80;74.92
82379;BME280;72008;48.140;11.614;2023-10-31T04:46:06;94156.75;;;9.81;75.62
82379;BME280;72008;48.140;11.614;2023-10-31T04:47:06;94158.78;;;9.88;75.61
82379;BME280;72008;48.140;11.614;2023-10-31T04:48:07;94154.91;;;9.89;75.04
82379;BME280;72008;48.140;11.614;2023-10-31T04:49:07;94164.25;;;9.88;76.41
82379;BME280;72008;48.140;11.614;2023-10-31T04:50:08;94171.72;;;9.91;75.76
82379;BME280;72008;48.140;11.614;2023-10-31T04:51:08;94163.50;;;9.91;75.63
82379;BME280;72008;48.140;11.614;2023-10-31T04:52:09;94154.13;;;9.88;75.54
82379;BME280;72008;48.140;11.614;2023-10-31T04:53:09;94168.53;;;9.85;75.14
82379;BME280;72008;48.140;11.614;2023-10-31T04:54:10;94151.72;;;9.83;75.60
82379;BME280;72008;48.140;11.614;2023-10-31T04:55:10;94161.88;;;9.83;76.56
82379;BME280;72008;48.140;11.614;2023-10-31T04:56:15;94155.91;;;9.73;75.33
82379;BME280;72008;48.140;11.614;2023-10-31T04:57:15;94149.22;;;9.71;75.98
82379;BME280;72008;48.140;11.614;2023-10-31T04:58:16;94153.97;;;9.77;76.08
82379;BME280;72008;48.140;11.614;2023-10-31T04:59:16;94144.72;;;9.86;76.98
82379;BME280;72008;48.140;11.614;2023-10-31T05:00:17;94145.53;;;9.90;76.18
82379;BME280;72008;48.140;11.614;2023-10-31T05:01:17;94147.50;;;9.89;75.67
82379;BME280;72008;48.140;11.614;2023-10-31T05:02:18;94151.00;;;9.90;76.43
82379;BME280;72008;48.140;11.614;2023-10-31T05:03:18;94140.00;;;9.83;76.17
82379;BME280;72008;48.140;11.614;2023-10-31T05:04:19;94146.25;;;9.83;75.96
82379;BME280;72008;48.140;11.614;2023-10-31T05:05:20;94151.00;;;9.90;77.03
82379;BME280;72008;48.140;11.614;2023-10-31T05:06:21;94152.97;;;9.89;76.18
82379;BME280;72008;48.140;11.614;2023-10-31T05:07:22;94154.13;;;9.88;76.74
82379;BME280;72008;48.140;11.614;2023-10-31T05:08:22;94158.13;;;9.94;76.30
82379;BME280;72008;48.140;11.614;2023-10-31T05:09:23;94154.91;;;9.89;75.93
82379;BME280;72008;48.140;11.614;2023-10-31T05:10:24;94147.94;;;9.91;76.32
82379;BME280;72008;48.140;11.614;2023-10-31T05:11:24;94162.81;;;9.94;76.67
82379;BME280;72008;48.140;11.614;2023-10-31T05:12:24;94163.59;;;9.94;76.06
82379;BME280;72008;48.140;11.614;2023-10-31T05:13:25;94164.81;;;10.00;76.50
82379;BME280;72008;48.140;11.614;2023-10-31T05:14:25;94171.34;;;9.92;76.25
82379;BME280;72008;48.140;11.614;2023-10-31T05:15:26;94178.00;;;9.91;77.00
82379;BME280;72008;48.140;11.614;2023-10-31T05:16:26;94175.53;;;9.83;76.74
82379;BME280;72008;48.140;11.614;2023-10-31T05:17:27;94175.88;;;9.81;76.64